sensor_id;sensor_type;location;lat;lon;timestamp;P1;durP1;ratioP1;P2;durP2;ratioP2
66800;SDS011;53703;50.326;19.122;2023-04-24T00:00:35;14.20;;;8.20;;
66800;SDS011;53703;50.326;19.122;2023-04-24T00:03:31;14.10;;;8.20;;
66800;SDS011;53703;50.326;19.122;2023-04-24T00:06:25;14.30;;;8.60;;
66800;SDS011;53703;50.326;19.122;2023-04-24T00:09:23;16.30;;;8.80;;
66800;SDS011;53703;50.326;19.122;2023-04-24T00:12:17;12.60;;;8.10;;
66800;SDS011;53703;50.326;19.122;2023-04-24T00:15:12;13.10;;;8.40;;
66800;SDS011;53703;50.326;19.122;2023-04-24T00:18:06;17.70;;;9.30;;
66800;SDS011;53703;50.326;19.122;2023-04-24T00:21:00;21.80;;;8.90;;
66800;SDS011;53703;50.326;19.122;2023-04-24T00:23:54;19.40;;;9.70;;
66800;SDS011;53703;50.326;19.122;2023-04-24T00:26:48;20.50;;;11.00;;
66800;SDS011;53703;50.326;19.122;2023-04-24T00:29:42;20.30;;;10.30;;
66800;SDS011;53703;50.326;19.122;2023-04-24T00:32:36;15.00;;;9.00;;
66800;SDS011;53703;50.326;19.122;2023-04-24T00:35:30;17.10;;;9.20;;
66800;SDS011;53703;50.326;19.122;2023-04-24T00:38:23;23.20;;;9.70;;
66800;SDS011;53703;50.326;19.122;2023-04-24T00:41:17;18.00;;;10.20;;
66800;SDS011;53703;50.326;19.122;2023-04-24T00:44:11;18.60;;;10.20;;
66800;SDS011;53703;50.326;19.122;2023-04-24T00:47:05;18.50;;;11.00;;
66800;SDS011;53703;50.326;19.122;2023-04-24T00:49:59;22.80;;;12.40;;
66800;SDS011;53703;50.326;19.122;2023-04-24T00:52:54;22.80;;;12.70;;
66800;SDS011;53703;50.326;19.122;2023-04-24T00:55:48;25.90;;;12.50;;
66800;SDS011;53703;50.326;19.122;2023-04-24T00:58:43;22.70;;;13.00;;
66800;SDS011;53703;50.326;19.122;2023-04-24T01:01:37;21.10;;;12.20;;
66800;SDS011;53703;50.326;19.122;2023-04-24T01:04:32;20.70;;;11.80;;
66800;SDS011;53703;50.326;19.122;2023-04-24T01:07:27;21.40;;;12.00;;
66800;SDS011;53703;50.326;19.122;2023-04-24T01:10:20;19.20;;;11.50;;
66800;SDS011;53703;50.326;19.122;2023-04-24T01:13:16;22.80;;;12.20;;
66800;SDS011;53703;50.326;19.122;2023-04-24T01:16:09;22.10;;;12.70;;
66800;SDS011;53703;50.326;19.122;2023-04-24T01:19:03;22.40;;;12.80;;
66800;SDS011;53703;50.326;19.122;2023-04-24T01:21:59;22.90;;;12.50;;
66800;SDS011;53703;50.326;19.122;2023-04-24T01:24:56;22.50;;;12.20;;
66800;SDS011;53703;50.326;19.122;2023-04-24T01:27:32;20.20;;;12.50;;
66800;SDS011;53703;50.326;19.122;2023-04-24T01:30:27;18.90;;;11.60;;
66800;SDS011;53703;50.326;19.122;2023-04-24T01:33:23;18.20;;;12.20;;
66800;SDS011;53703;50.326;19.122;2023-04-24T01:36:17;22.80;;;13.00;;
66800;SDS011;53703;50.326;19.122;2023-04-24T01:39:15;26.60;;;14.70;;
66800;SDS011;53703;50.326;19.122;2023-04-24T01:42:11;30.80;;;15.40;;
66800;SDS011;53703;50.326;19.122;2023-04-24T01:45:07;25.60;;;15.20;;
66800;SDS011;53703;50.326;19.122;2023-04-24T01:47:49;27.00;;;15.20;;
66800;SDS011;53703;50.326;19.122;2023-04-24T01:50:44;27.20;;;15.50;;
66800;SDS011;53703;50.326;19.122;2023-04-24T01:53:38;28.70;;;14.60;;
66800;SDS011;53703;50.326;19.122;2023-04-24T01:56:32;24.00;;;13.60;;
66800;SDS011;53703;50.326;19.122;2023-04-24T01:59:27;20.00;;;12.90;;
66800;SDS011;53703;50.326;19.122;2023-04-24T02:02:22;25.40;;;13.20;;
66800;SDS011;53703;50.326;19.122;2023-04-24T02:05:18;21.50;;;12.90;;
66800;SDS011;53703;50.326;19.122;2023-04-24T02:08:12;23.20;;;13.50;;
66800;SDS011;53703;50.326;19.122;2023-04-24T02:11:06;21.40;;;12.80;;
66800;SDS011;53703;50.326;19.122;2023-04-24T02:14:00;22.50;;;13.10;;
66800;SDS011;53703;50.326;19.122;2023-04-24T02:16:53;26.90;;;12.20;;
66800;SDS011;53703;50.326;19.122;2023-04-24T02:19:47;27.50;;;13.60;;
66800;SDS011;53703;50.326;19.122;2023-04-24T02:22:41;29.70;;;13.20;;
66800;SDS011;53703;50.326;19.122;2023-04-24T02:25:36;29.70;;;13.60;;
66800;SDS011;53703;50.326;19.122;2023-04-24T02:28:29;28.90;;;12.60;;
66800;SDS011;53703;50.326;19.122;2023-04-24T02:31:23;25.30;;;13.10;;
66800;SDS011;53703;50.326;19.122;2023-04-24T02:34:18;26.40;;;12.60;;
66800;SDS011;53703;50.326;19.122;2023-04-24T02:37:11;24.60;;;12.40;;
66800;SDS011;53703;50.326;19.122;2023-04-24T02:40:07;22.70;;;12.60;;
66800;SDS011;53703;50.326;19.122;2023-04-24T02:43:02;24.30;;;12.20;;
66800;SDS011;53703;50.326;19.122;2023-04-24T02:45:55;21.10;;;11.50;;
66800;SDS011;53703;50.326;19.122;2023-04-24T02:48:49;22.60;;;11.70;;
66800;SDS011;53703;50.326;19.122;2023-04-24T02:51:43;25.00;;;12.30;;
66800;SDS011;53703;50.326;19.122;2023-04-24T02:54:37;28.90;;;12.60;;
66800;SDS011;53703;50.326;19.122;2023-04-24T02:57:31;27.10;;;12.60;;
66800;SDS011;53703;50.326;19.122;2023-04-24T03:00:25;26.00;;;13.40;;
66800;SDS011;53703;50.326;19.122;2023-04-24T03:03:18;26.50;;;13.30;;
66800;SDS011;53703;50.326;19.122;2023-04-24T03:06:12;27.20;;;13.20;;
66800;SDS011;53703;50.326;19.122;2023-04-24T03:09:06;22.70;;;12.80;;
66800;SDS011;53703;50.326;19.122;2023-04-24T03:12:00;28.70;;;13.40;;
66800;SDS011;53703;50.326;19.122;2023-04-24T03:14:54;26.00;;;13.50;;
66800;SDS011;53703;50.326;19.122;2023-04-24T03:17:48;26.70;;;13.10;;
66800;SDS011;53703;50.326;19.122;2023-04-24T03:20:43;25.90;;;12.80;;
66800;SDS011;53703;50.326;19.122;2023-04-24T03:23:38;25.00;;;12.40;;
66800;SDS011;53703;50.326;19.122;2023-04-24T03:26:32;26.60;;;12.70;;
66800;SDS011;53703;50.326;19.122;2023-04-24T03:29:26;31.00;;;13.30;;
66800;SDS011;53703;50.326;19.122;2023-04-24T03:32:20;26.40;;;11.70;;
66800;SDS011;53703;50.326;19.122;2023-04-24T03:35:14;28.80;;;13.00;;
66800;SDS011;53703;50.326;19.122;2023-04-24T03:38:07;32.00;;;12.60;;
66800;SDS011;53703;50.326;19.122;2023-04-24T03:41:01;26.60;;;12.50;;
66800;SDS011;53703;50.326;19.122;2023-04-24T03:43:55;29.50;;;12.40;;
66800;SDS011;53703;50.326;19.122;2023-04-24T03:46:49;23.30;;;12.30;;
66800;SDS011;53703;50.326;19.122;2023-04-24T03:49:33;27.80;;;13.00;;
66800;SDS011;53703;50.326;19.122;2023-04-24T03:52:27;24.40;;;12.00;;
66800;SDS011;53703;50.326;19.122;2023-04-24T03:55:21;20.30;;;11.30;;
66800;SDS011;53703;50.326;19.122;2023-04-24T03:58:14;25.30;;;12.40;;
66800;SDS011;53703;50.326;19.122;2023-04-24T04:01:08;29.00;;;12.90;;
66800;SDS011;53703;50.326;19.122;2023-04-24T04:04:02;22.70;;;11.70;;
66800;SDS011;53703;50.326;19.122;2023-04-24T04:06:56;24.50;;;12.60;;
66800;SDS011;53703;50.326;19.122;2023-04-24T04:09:51;27.50;;;12.80;;
66800;SDS011;53703;50.326;19.122;2023-04-24T04:12:46;23.90;;;12.70;;
66800;SDS011;53703;50.326;19.122;2023-04-24T04:15:40;22.90;;;12.50;;
66800;SDS011;53703;50.326;19.122;2023-04-24T04:18:34;25.10;;;12.70;;
66800;SDS011;53703;50.326;19.122;2023-04-24T04:21:28;27.40;;;13.40;;
66800;SDS011;53703;50.326;19.122;2023-04-24T04:24:22;25.30;;;13.40;;
66800;SDS011;53703;50.326;19.122;2023-04-24T04:27:17;27.60;;;13.70;;
66800;SDS011;53703;50.326;19.122;2023-04-24T04:30:12;33.30;;;14.90;;
66800;SDS011;53703;50.326;19.122;2023-04-24T04:33:06;30.20;;;14.30;;
66800;SDS011;53703;50.326;19.122;2023-04-24T04:36:01;30.80;;;13.80;;
66800;SDS011;53703;50.326;19.122;2023-04-24T04:38:55;24.70;;;13.20;;
66800;SDS011;53703;50.326;19.122;2023-04-24T04:41:50;30.90;;;12.90;;
66800;SDS011;53703;50.326;19.122;2023-04-24T04:44:43;26.40;;;13.30;;
66800;SDS011;53703;50.326;19.122;2023-04-24T04:47:37;26.60;;;12.40;;
66800;SDS011;53703;50.326;19.122;2023-04-24T04:50:31;30.20;;;13.30;;
66800;SDS011;53703;50.326;19.122;2023-04-24T04:53:24;28.80;;;13.50;;
66800;SDS011;53703;50.326;19.122;2023-04-24T04:56:18;28.30;;;13.20;;
66800;SDS011;53703;50.326;19.122;2023-04-24T04:59:12;26.60;;;13.00;;
66800;SDS011;53703;50.326;19.122;2023-04-24T05:02:06;32.00;;;13.70;;
66800;SDS011;53703;50.326;19.122;2023-04-24T05:05:00;31.50;;;13.90;;
66800;SDS011;53703;50.326;19.122;2023-04-24T05:07:54;28.90;;;13.10;;
66800;SDS011;53703;50.326;19.122;2023-04-24T05:10:48;26.40;;;13.10;;
66800;SDS011;53703;50.326;19.122;2023-04-24T05:13:42;29.90;;;12.90;;
66800;SDS011;53703;50.326;19.122;2023-04-24T05:16:36;27.40;;;13.90;;
66800;SDS011;53703;50.326;19.122;2023-04-24T05:19:35;26.60;;;12.50;;
66800;SDS011;53703;50.326;19.122;2023-04-24T05:22:29;29.50;;;11.30;;
66800;SDS011;53703;50.326;19.122;2023-04-24T05:25:23;27.80;;;12.30;;
66800;SDS011;53703;50.326;19.122;2023-04-24T05:28:17;25.30;;;11.50;;
66800;SDS011;53703;50.326;19.122;2023-04-24T05:31:11;23.20;;;11.30;;
66800;SDS011;53703;50.326;19.122;2023-04-24T05:34:05;21.60;;;10.30;;
66800;SDS011;53703;50.326;19.122;2023-04-24T05:36:59;21.20;;;11.20;;
66800;SDS011;53703;50.326;19.122;2023-04-24T05:39:52;25.10;;;12.60;;
66800;SDS011;53703;50.326;19.122;2023-04-24T05:42:46;25.20;;;10.80;;
66800;SDS011;53703;50.326;19.122;2023-04-24T05:45:40;19.90;;;10.00;;
66800;SDS011;53703;50.326;19.122;2023-04-24T05:48:34;20.50;;;10.40;;
66800;SDS011;53703;50.326;19.122;2023-04-24T05:51:27;19.70;;;10.80;;
66800;SDS011;53703;50.326;19.122;2023-04-24T05:54:22;22.60;;;10.60;;
66800;SDS011;53703;50.326;19.122;2023-04-24T05:57:16;20.10;;;9.60;;
66800;SDS011;53703;50.326;19.122;2023-04-24T06:00:11;24.50;;;10.70;;
66800;SDS011;53703;50.326;19.122;2023-04-24T06:03:06;20.30;;;8.50;;
66800;SDS011;53703;50.326;19.122;2023-04-24T06:06:00;22.70;;;9.00;;
66800;SDS011;53703;50.326;19.122;2023-04-24T06:08:54;16.50;;;8.20;;
66800;SDS011;53703;50.326;19.122;2023-04-24T06:11:50;18.20;;;7.30;;
66800;SDS011;53703;50.326;19.122;2023-04-24T06:14:44;15.00;;;6.40;;
66800;SDS011;53703;50.326;19.122;2023-04-24T06:17:37;11.90;;;6.00;;
66800;SDS011;53703;50.326;19.122;2023-04-24T06:20:31;9.30;;;6.10;;
66800;SDS011;53703;50.326;19.122;2023-04-24T06:23:25;12.80;;;6.70;;
66800;SDS011;53703;50.326;19.122;2023-04-24T06:26:19;12.70;;;6.60;;
66800;SDS011;53703;50.326;19.122;2023-04-24T06:29:12;11.70;;;6.70;;
66800;SDS011;53703;50.326;19.122;2023-04-24T06:32:06;10.10;;;5.90;;
66800;SDS011;53703;50.326;19.122;2023-04-24T06:35:00;13.00;;;5.80;;
66800;SDS011;53703;50.326;19.122;2023-04-24T06:37:54;11.40;;;5.50;;
66800;SDS011;53703;50.326;19.122;2023-04-24T06:40:48;11.80;;;5.70;;
66800;SDS011;53703;50.326;19.122;2023-04-24T06:43:41;12.20;;;7.40;;
66800;SDS011;53703;50.326;19.122;2023-04-24T06:46:35;9.60;;;5.10;;
66800;SDS011;53703;50.326;19.122;2023-04-24T06:49:31;8.90;;;6.00;;
66800;SDS011;53703;50.326;19.122;2023-04-24T06:52:25;14.00;;;5.60;;
66800;SDS011;53703;50.326;19.122;2023-04-24T06:55:20;13.80;;;5.40;;
66800;SDS011;53703;50.326;19.122;2023-04-24T06:58:13;7.60;;;5.00;;
66800;SDS011;53703;50.326;19.122;2023-04-24T07:01:07;14.20;;;4.90;;
66800;SDS011;53703;50.326;19.122;2023-04-24T07:04:01;8.10;;;5.10;;
66800;SDS011;53703;50.326;19.122;2023-04-24T07:06:56;9.60;;;5.40;;
66800;SDS011;53703;50.326;19.122;2023-04-24T07:09:49;13.00;;;5.90;;
66800;SDS011;53703;50.326;19.122;2023-04-24T07:12:44;8.50;;;4.90;;
66800;SDS011;53703;50.326;19.122;2023-04-24T07:15:39;11.20;;;5.20;;
66800;SDS011;53703;50.326;19.122;2023-04-24T07:18:33;7.60;;;4.50;;
66800;SDS011;53703;50.326;19.122;2023-04-24T07:21:27;8.70;;;4.70;;
66800;SDS011;53703;50.326;19.122;2023-04-24T07:24:22;16.00;;;5.60;;
66800;SDS011;53703;50.326;19.122;2023-04-24T07:27:16;7.90;;;5.00;;
66800;SDS011;53703;50.326;19.122;2023-04-24T07:30:11;10.40;;;4.90;;
66800;SDS011;53703;50.326;19.122;2023-04-24T07:33:05;7.50;;;4.80;;
66800;SDS011;53703;50.326;19.122;2023-04-24T07:35:59;8.60;;;4.30;;
66800;SDS011;53703;50.326;19.122;2023-04-24T07:38:53;8.10;;;4.60;;
66800;SDS011;53703;50.326;19.122;2023-04-24T07:41:48;7.00;;;4.70;;
66800;SDS011;53703;50.326;19.122;2023-04-24T07:44:41;8.60;;;5.00;;
66800;SDS011;53703;50.326;19.122;2023-04-24T07:47:37;9.40;;;5.50;;
66800;SDS011;53703;50.326;19.122;2023-04-24T07:50:31;9.20;;;5.10;;
66800;SDS011;53703;50.326;19.122;2023-04-24T07:53:26;10.40;;;5.00;;
66800;SDS011;53703;50.326;19.122;2023-04-24T07:56:11;6.90;;;4.50;;
66800;SDS011;53703;50.326;19.122;2023-04-24T07:59:04;8.50;;;4.70;;
66800;SDS011;53703;50.326;19.122;2023-04-24T08:01:58;11.30;;;5.30;;
66800;SDS011;53703;50.326;19.122;2023-04-24T08:04:53;6.80;;;4.50;;
66800;SDS011;53703;50.326;19.122;2023-04-24T08:07:50;9.70;;;5.00;;
66800;SDS011;53703;50.326;19.122;2023-04-24T08:10:44;8.10;;;4.80;;
66800;SDS011;53703;50.326;19.122;2023-04-24T08:13:37;7.70;;;4.90;;
66800;SDS011;53703;50.326;19.122;2023-04-24T08:16:31;8.40;;;5.00;;
66800;SDS011;53703;50.326;19.122;2023-04-24T08:19:26;9.40;;;4.90;;
66800;SDS011;53703;50.326;19.122;2023-04-24T08:22:20;8.80;;;4.90;;
66800;SDS011;53703;50.326;19.122;2023-04-24T08:25:13;9.90;;;5.30;;
66800;SDS011;53703;50.326;19.122;2023-04-24T08:28:08;9.80;;;5.00;;
66800;SDS011;53703;50.326;19.122;2023-04-24T08:33:58;7.10;;;5.10;;
66800;SDS011;53703;50.326;19.122;2023-04-24T08:36:53;7.00;;;4.70;;
66800;SDS011;53703;50.326;19.122;2023-04-24T08:39:46;8.00;;;5.10;;
66800;SDS011;53703;50.326;19.122;2023-04-24T08:42:40;9.10;;;5.10;;
66800;SDS011;53703;50.326;19.122;2023-04-24T08:45:35;7.30;;;4.50;;
66800;SDS011;53703;50.326;19.122;2023-04-24T08:48:20;7.60;;;4.70;;
66800;SDS011;53703;50.326;19.122;2023-04-24T08:51:23;7.80;;;4.80;;
66800;SDS011;53703;50.326;19.122;2023-04-24T08:54:18;8.40;;;5.00;;
66800;SDS011;53703;50.326;19.122;2023-04-24T08:57:12;6.10;;;4.40;;
66800;SDS011;53703;50.326;19.122;2023-04-24T08:59:58;9.30;;;4.80;;
66800;SDS011;53703;50.326;19.122;2023-04-24T09:05:49;7.20;;;4.80;;
66800;SDS011;53703;50.326;19.122;2023-04-24T09:08:45;7.60;;;4.50;;
66800;SDS011;53703;50.326;19.122;2023-04-24T09:11:41;6.60;;;4.60;;
66800;SDS011;53703;50.326;19.122;2023-04-24T09:14:35;7.30;;;4.50;;
66800;SDS011;53703;50.326;19.122;2023-04-24T09:17:33;12.10;;;4.80;;
66800;SDS011;53703;50.326;19.122;2023-04-24T09:20:27;7.30;;;4.40;;
66800;SDS011;53703;50.326;19.122;2023-04-24T09:23:22;7.90;;;4.60;;
66800;SDS011;53703;50.326;19.122;2023-04-24T09:26:17;6.50;;;4.70;;
66800;SDS011;53703;50.326;19.122;2023-04-24T09:29:16;11.20;;;4.40;;
66800;SDS011;53703;50.326;19.122;2023-04-24T09:32:23;8.20;;;4.20;;
66800;SDS011;53703;50.326;19.122;2023-04-24T09:35:19;5.50;;;4.10;;
66800;SDS011;53703;50.326;19.122;2023-04-24T09:38:13;6.60;;;4.40;;
66800;SDS011;53703;50.326;19.122;2023-04-24T09:41:08;7.00;;;4.40;;
66800;SDS011;53703;50.326;19.122;2023-04-24T09:44:14;9.70;;;4.60;;
66800;SDS011;53703;50.326;19.122;2023-04-24T09:47:08;7.50;;;4.20;;
66800;SDS011;53703;50.326;19.122;2023-04-24T09:50:08;7.20;;;4.40;;
66800;SDS011;53703;50.326;19.122;2023-04-24T09:53:19;6.30;;;3.60;;
66800;SDS011;53703;50.326;19.122;2023-04-24T09:56:17;6.70;;;3.90;;
66800;SDS011;53703;50.326;19.122;2023-04-24T09:59:11;6.10;;;4.30;;
66800;SDS011;53703;50.326;19.122;2023-04-24T10:02:06;8.60;;;4.30;;
66800;SDS011;53703;50.326;19.122;2023-04-24T10:05:12;7.80;;;4.10;;
66800;SDS011;53703;50.326;19.122;2023-04-24T10:08:07;6.70;;;4.40;;
66800;SDS011;53703;50.326;19.122;2023-04-24T10:11:02;6.00;;;4.10;;
66800;SDS011;53703;50.326;19.122;2023-04-24T10:13:56;6.10;;;4.00;;
66800;SDS011;53703;50.326;19.122;2023-04-24T10:16:52;7.60;;;4.40;;
66800;SDS011;53703;50.326;19.122;2023-04-24T10:19:47;7.10;;;4.50;;
66800;SDS011;53703;50.326;19.122;2023-04-24T10:22:41;9.30;;;3.90;;
66800;SDS011;53703;50.326;19.122;2023-04-24T10:25:39;8.40;;;3.90;;
66800;SDS011;53703;50.326;19.122;2023-04-24T10:28:34;6.70;;;4.40;;
66800;SDS011;53703;50.326;19.122;2023-04-24T10:31:32;6.20;;;3.80;;
66800;SDS011;53703;50.326;19.122;2023-04-24T10:34:26;7.30;;;4.20;;
66800;SDS011;53703;50.326;19.122;2023-04-24T10:37:21;11.90;;;4.60;;
66800;SDS011;53703;50.326;19.122;2023-04-24T10:40:19;8.50;;;4.80;;
66800;SDS011;53703;50.326;19.122;2023-04-24T10:43:20;7.90;;;4.50;;
66800;SDS011;53703;50.326;19.122;2023-04-24T10:46:19;9.20;;;4.20;;
66800;SDS011;53703;50.326;19.122;2023-04-24T10:49:13;6.70;;;4.50;;
66800;SDS011;53703;50.326;19.122;2023-04-24T10:52:08;7.70;;;4.30;;
66800;SDS011;53703;50.326;19.122;2023-04-24T10:55:04;7.10;;;4.50;;
66800;SDS011;53703;50.326;19.122;2023-04-24T10:58:05;10.00;;;4.60;;
66800;SDS011;53703;50.326;19.122;2023-04-24T11:01:00;7.50;;;4.50;;
66800;SDS011;53703;50.326;19.122;2023-04-24T11:03:56;7.60;;;4.70;;
66800;SDS011;53703;50.326;19.122;2023-04-24T11:06:51;5.60;;;4.00;;
66800;SDS011;53703;50.326;19.122;2023-04-24T11:09:46;5.80;;;4.20;;
66800;SDS011;53703;50.326;19.122;2023-04-24T11:13:00;5.40;;;3.70;;
66800;SDS011;53703;50.326;19.122;2023-04-24T11:16:16;7.40;;;3.90;;
66800;SDS011;53703;50.326;19.122;2023-04-24T11:19:26;6.20;;;4.10;;
66800;SDS011;53703;50.326;19.122;2023-04-24T11:22:20;14.50;;;4.20;;
66800;SDS011;53703;50.326;19.122;2023-04-24T11:25:17;7.90;;;4.20;;
66800;SDS011;53703;50.326;19.122;2023-04-24T11:28:15;8.30;;;4.20;;
66800;SDS011;53703;50.326;19.122;2023-04-24T11:31:35;14.70;;;4.30;;
66800;SDS011;53703;50.326;19.122;2023-04-24T11:34:30;13.80;;;4.50;;
66800;SDS011;53703;50.326;19.122;2023-04-24T11:37:26;39.80;;;11.40;;
66800;SDS011;53703;50.326;19.122;2023-04-24T11:40:22;18.90;;;5.90;;
66800;SDS011;53703;50.326;19.122;2023-04-24T11:43:16;23.80;;;7.30;;
66800;SDS011;53703;50.326;19.122;2023-04-24T11:46:12;23.80;;;7.30;;
66800;SDS011;53703;50.326;19.122;2023-04-24T11:49:08;29.10;;;8.90;;
66800;SDS011;53703;50.326;19.122;2023-04-24T11:52:04;24.10;;;7.90;;
66800;SDS011;53703;50.326;19.122;2023-04-24T11:54:58;20.50;;;7.20;;
66800;SDS011;53703;50.326;19.122;2023-04-24T11:57:54;20.30;;;7.20;;
66800;SDS011;53703;50.326;19.122;2023-04-24T12:01:09;27.30;;;7.70;;
66800;SDS011;53703;50.326;19.122;2023-04-24T12:04:03;16.40;;;6.30;;
66800;SDS011;53703;50.326;19.122;2023-04-24T12:07:03;17.40;;;6.70;;
66800;SDS011;53703;50.326;19.122;2023-04-24T12:09:59;15.30;;;6.70;;
66800;SDS011;53703;50.326;19.122;2023-04-24T12:12:55;16.70;;;6.30;;
66800;SDS011;53703;50.326;19.122;2023-04-24T12:15:51;12.10;;;6.20;;
66800;SDS011;53703;50.326;19.122;2023-04-24T12:18:46;19.30;;;5.80;;
66800;SDS011;53703;50.326;19.122;2023-04-24T12:21:40;14.60;;;5.90;;
66800;SDS011;53703;50.326;19.122;2023-04-24T12:24:34;11.00;;;5.80;;
66800;SDS011;53703;50.326;19.122;2023-04-24T12:28:09;13.70;;;5.50;;
66800;SDS011;53703;50.326;19.122;2023-04-24T12:31:10;9.30;;;5.20;;
66800;SDS011;53703;50.326;19.122;2023-04-24T12:34:04;9.40;;;5.50;;
66800;SDS011;53703;50.326;19.122;2023-04-24T12:37:12;10.10;;;5.40;;
66800;SDS011;53703;50.326;19.122;2023-04-24T12:40:09;9.70;;;5.30;;
66800;SDS011;53703;50.326;19.122;2023-04-24T12:43:14;8.60;;;5.00;;
66800;SDS011;53703;50.326;19.122;2023-04-24T12:46:09;9.80;;;5.60;;
66800;SDS011;53703;50.326;19.122;2023-04-24T12:49:05;16.40;;;6.00;;
66800;SDS011;53703;50.326;19.122;2023-04-24T12:55:07;11.80;;;5.10;;
66800;SDS011;53703;50.326;19.122;2023-04-24T12:58:03;9.60;;;5.10;;
66800;SDS011;53703;50.326;19.122;2023-04-24T13:00:56;10.70;;;4.80;;
66800;SDS011;53703;50.326;19.122;2023-04-24T13:03:52;7.80;;;4.70;;
66800;SDS011;53703;50.326;19.122;2023-04-24T13:06:46;7.80;;;4.90;;
66800;SDS011;53703;50.326;19.122;2023-04-24T13:09:40;8.50;;;4.60;;
66800;SDS011;53703;50.326;19.122;2023-04-24T13:12:34;6.40;;;4.60;;
66800;SDS011;53703;50.326;19.122;2023-04-24T13:15:28;7.50;;;5.10;;
66800;SDS011;53703;50.326;19.122;2023-04-24T13:18:22;10.50;;;4.80;;
66800;SDS011;53703;50.326;19.122;2023-04-24T13:21:16;8.10;;;5.30;;
66800;SDS011;53703;50.326;19.122;2023-04-24T13:24:10;9.80;;;5.60;;
66800;SDS011;53703;50.326;19.122;2023-04-24T13:27:06;9.30;;;5.30;;
66800;SDS011;53703;50.326;19.122;2023-04-24T13:30:01;11.10;;;4.80;;
66800;SDS011;53703;50.326;19.122;2023-04-24T13:32:55;9.30;;;4.70;;
66800;SDS011;53703;50.326;19.122;2023-04-24T13:35:49;8.20;;;4.10;;
66800;SDS011;53703;50.326;19.122;2023-04-24T13:38:43;5.80;;;4.00;;
66800;SDS011;53703;50.326;19.122;2023-04-24T13:41:37;8.50;;;4.20;;
66800;SDS011;53703;50.326;19.122;2023-04-24T13:44:32;5.40;;;4.10;;
66800;SDS011;53703;50.326;19.122;2023-04-24T13:47:26;5.90;;;3.90;;
66800;SDS011;53703;50.326;19.122;2023-04-24T13:50:20;4.80;;;3.90;;
66800;SDS011;53703;50.326;19.122;2023-04-24T13:53:14;7.10;;;3.90;;
66800;SDS011;53703;50.326;19.122;2023-04-24T13:56:08;7.10;;;3.80;;
66800;SDS011;53703;50.326;19.122;2023-04-24T13:59:03;6.10;;;3.80;;
66800;SDS011;53703;50.326;19.122;2023-04-24T14:01:58;6.50;;;3.80;;
66800;SDS011;53703;50.326;19.122;2023-04-24T14:04:52;7.50;;;4.30;;
66800;SDS011;53703;50.326;19.122;2023-04-24T14:07:46;6.60;;;4.30;;
66800;SDS011;53703;50.326;19.122;2023-04-24T14:10:40;8.00;;;4.80;;
66800;SDS011;53703;50.326;19.122;2023-04-24T14:13:35;5.30;;;4.30;;
66800;SDS011;53703;50.326;19.122;2023-04-24T14:16:29;6.90;;;4.40;;
66800;SDS011;53703;50.326;19.122;2023-04-24T14:19:23;6.00;;;4.40;;
66800;SDS011;53703;50.326;19.122;2023-04-24T14:22:17;6.50;;;4.20;;
66800;SDS011;53703;50.326;19.122;2023-04-24T14:25:12;7.90;;;4.40;;
66800;SDS011;53703;50.326;19.122;2023-04-24T14:28:06;6.40;;;4.70;;
66800;SDS011;53703;50.326;19.122;2023-04-24T14:31:01;6.40;;;4.30;;
66800;SDS011;53703;50.326;19.122;2023-04-24T14:33:55;8.60;;;5.00;;
66800;SDS011;53703;50.326;19.122;2023-04-24T14:36:49;6.80;;;4.90;;
66800;SDS011;53703;50.326;19.122;2023-04-24T14:39:44;7.20;;;5.00;;
66800;SDS011;53703;50.326;19.122;2023-04-24T14:42:56;7.20;;;5.00;;
66800;SDS011;53703;50.326;19.122;2023-04-24T14:45:50;7.20;;;4.80;;
66800;SDS011;53703;50.326;19.122;2023-04-24T14:48:44;6.20;;;4.80;;
66800;SDS011;53703;50.326;19.122;2023-04-24T14:51:38;9.40;;;4.90;;
66800;SDS011;53703;50.326;19.122;2023-04-24T14:54:33;8.00;;;5.40;;
66800;SDS011;53703;50.326;19.122;2023-04-24T14:57:28;11.50;;;5.10;;
66800;SDS011;53703;50.326;19.122;2023-04-24T15:00:22;12.30;;;5.00;;
66800;SDS011;53703;50.326;19.122;2023-04-24T15:03:17;8.20;;;5.30;;
66800;SDS011;53703;50.326;19.122;2023-04-24T15:06:12;8.10;;;4.90;;
66800;SDS011;53703;50.326;19.122;2023-04-24T15:09:06;6.90;;;4.70;;
66800;SDS011;53703;50.326;19.122;2023-04-24T15:12:01;7.60;;;4.90;;
66800;SDS011;53703;50.326;19.122;2023-04-24T15:14:55;27.80;;;5.50;;
66800;SDS011;53703;50.326;19.122;2023-04-24T15:17:49;11.00;;;4.90;;
66800;SDS011;53703;50.326;19.122;2023-04-24T15:20:43;11.30;;;4.60;;
66800;SDS011;53703;50.326;19.122;2023-04-24T15:23:37;7.00;;;5.00;;
66800;SDS011;53703;50.326;19.122;2023-04-24T15:26:32;9.60;;;5.40;;
66800;SDS011;53703;50.326;19.122;2023-04-24T15:29:26;8.20;;;5.10;;
66800;SDS011;53703;50.326;19.122;2023-04-24T15:32:20;6.80;;;4.80;;
66800;SDS011;53703;50.326;19.122;2023-04-24T15:35:14;6.90;;;4.70;;
66800;SDS011;53703;50.326;19.122;2023-04-24T15:38:08;6.70;;;4.80;;
66800;SDS011;53703;50.326;19.122;2023-04-24T15:41:03;7.20;;;4.40;;
66800;SDS011;53703;50.326;19.122;2023-04-24T15:43:57;11.70;;;4.30;;
66800;SDS011;53703;50.326;19.122;2023-04-24T15:46:51;6.60;;;3.70;;
66800;SDS011;53703;50.326;19.122;2023-04-24T15:49:45;7.00;;;4.00;;
66800;SDS011;53703;50.326;19.122;2023-04-24T15:52:39;7.00;;;4.20;;
66800;SDS011;53703;50.326;19.122;2023-04-24T15:55:33;5.10;;;4.00;;
66800;SDS011;53703;50.326;19.122;2023-04-24T15:58:27;6.10;;;4.00;;
66800;SDS011;53703;50.326;19.122;2023-04-24T16:01:21;9.90;;;3.80;;
66800;SDS011;53703;50.326;19.122;2023-04-24T16:04:15;4.60;;;3.70;;
66800;SDS011;53703;50.326;19.122;2023-04-24T16:07:10;8.90;;;4.00;;
66800;SDS011;53703;50.326;19.122;2023-04-24T16:10:04;6.40;;;4.40;;
66800;SDS011;53703;50.326;19.122;2023-04-24T16:12:59;8.30;;;4.30;;
66800;SDS011;53703;50.326;19.122;2023-04-24T16:15:53;7.50;;;4.40;;
66800;SDS011;53703;50.326;19.122;2023-04-24T16:18:47;6.30;;;4.10;;
66800;SDS011;53703;50.326;19.122;2023-04-24T16:21:43;7.70;;;3.90;;
66800;SDS011;53703;50.326;19.122;2023-04-24T16:24:38;5.10;;;3.70;;
66800;SDS011;53703;50.326;19.122;2023-04-24T16:27:32;6.90;;;3.60;;
66800;SDS011;53703;50.326;19.122;2023-04-24T16:30:26;6.80;;;4.00;;
66800;SDS011;53703;50.326;19.122;2023-04-24T16:33:20;9.60;;;4.00;;
66800;SDS011;53703;50.326;19.122;2023-04-24T16:36:16;6.00;;;3.70;;
66800;SDS011;53703;50.326;19.122;2023-04-24T16:39:10;5.00;;;3.90;;
66800;SDS011;53703;50.326;19.122;2023-04-24T16:42:04;6.80;;;4.20;;
66800;SDS011;53703;50.326;19.122;2023-04-24T16:44:58;6.80;;;4.10;;
66800;SDS011;53703;50.326;19.122;2023-04-24T16:47:52;6.90;;;4.10;;
66800;SDS011;53703;50.326;19.122;2023-04-24T16:50:47;6.70;;;4.10;;
66800;SDS011;53703;50.326;19.122;2023-04-24T16:53:41;5.50;;;4.00;;
66800;SDS011;53703;50.326;19.122;2023-04-24T16:56:34;5.50;;;3.90;;
66800;SDS011;53703;50.326;19.122;2023-04-24T16:59:29;6.70;;;4.40;;
66800;SDS011;53703;50.326;19.122;2023-04-24T17:02:24;7.10;;;4.30;;
66800;SDS011;53703;50.326;19.122;2023-04-24T17:05:19;5.90;;;4.40;;
66800;SDS011;53703;50.326;19.122;2023-04-24T17:08:13;7.50;;;4.00;;
66800;SDS011;53703;50.326;19.122;2023-04-24T17:11:07;6.40;;;4.50;;
66800;SDS011;53703;50.326;19.122;2023-04-24T17:13:54;11.00;;;4.20;;